createdAt,value
2023-10-26T00:01:29.437Z,72.06
2023-10-26T00:03:57.763Z,72.44
2023-10-26T00:06:27.286Z,72.58
2023-10-26T00:08:55.350Z,72.42
2023-10-26T00:11:23.651Z,71.98
2023-10-26T00:13:51.680Z,72.01
2023-10-26T00:16:19.692Z,72.06
2023-10-26T00:18:48.204Z,71.80
2023-10-26T00:21:19.099Z,71.78
2023-10-26T00:23:48.999Z,71.66
2023-10-26T00:26:17.044Z,71.82
2023-10-26T00:28:46.619Z,71.75
2023-10-26T00:31:14.854Z,71.32
2023-10-26T00:33:43.030Z,71.23
2023-10-26T00:36:11.146Z,71.43
2023-10-26T00:38:39.511Z,71.44
2023-10-26T00:41:08.988Z,71.20
2023-10-26T00:43:37.011Z,71.07
2023-10-26T00:46:07.500Z,71.55
2023-10-26T00:48:35.668Z,71.79
2023-10-26T00:51:03.992Z,71.87
2023-10-26T00:53:35.240Z,71.87
2023-10-26T00:56:03.561Z,72.75
2023-10-26T00:58:33.134Z,72.83
2023-10-26T01:01:01.660Z,73.33
2023-10-26T01:03:32.893Z,72.17
2023-10-26T01:06:01.276Z,73.84
2023-10-26T01:08:29.390Z,74.12
2023-10-26T01:10:58.533Z,73.72
2023-10-26T01:13:27.056Z,74.04
2023-10-26T01:15:56.547Z,73.75
2023-10-26T01:18:24.640Z,73.77
2023-10-26T01:20:54.421Z,73.65
2023-10-26T01:23:23.892Z,74.18
2023-10-26T01:25:54.662Z,73.95
2023-10-26T01:28:24.323Z,73.94
2023-10-26T01:30:53.432Z,73.41
2023-10-26T01:33:22.142Z,73.47
2023-10-26T01:35:50.676Z,73.37
2023-10-26T01:38:18.756Z,73.17
2023-10-26T01:40:49.973Z,73.74
2023-10-26T01:43:18.615Z,74.06
2023-10-26T01:45:46.825Z,74.06
2023-10-26T01:48:14.971Z,73.46
2023-10-26T01:50:43.332Z,74.03
2023-10-26T01:53:11.440Z,73.47
2023-10-26T01:55:40.428Z,73.69
2023-10-26T01:58:10.064Z,73.56
2023-10-26T02:00:38.047Z,73.73
2023-10-26T02:03:06.468Z,73.23
2023-10-26T02:05:35.240Z,73.20
2023-10-26T02:08:03.480Z,72.82
2023-10-26T02:10:31.842Z,73.54
2023-10-26T02:13:00.282Z,73.19
2023-10-26T02:15:32.029Z,73.22
2023-10-26T02:18:00.450Z,73.12
2023-10-26T02:20:29.393Z,73.29
2023-10-26T02:22:57.374Z,73.22
2023-10-26T02:25:26.131Z,72.69
2023-10-26T02:27:54.214Z,72.84
2023-10-26T02:30:22.515Z,72.95
2023-10-26T02:32:52.638Z,73.03
2023-10-26T02:35:21.886Z,72.93
2023-10-26T02:37:50.232Z,72.95
2023-10-26T02:40:18.455Z,72.91
2023-10-26T02:42:46.484Z,73.20
2023-10-26T02:45:14.854Z,73.14
2023-10-26T02:47:43.288Z,72.86
2023-10-26T02:50:15.515Z,73.02
2023-10-26T02:52:43.833Z,72.64
2023-10-26T02:55:11.888Z,73.33
2023-10-26T02:57:39.888Z,73.15
2023-10-26T03:00:09.297Z,73.10
2023-10-26T03:02:37.390Z,73.49
2023-10-26T03:05:05.722Z,73.42
2023-10-26T03:07:35.326Z,73.22
2023-10-26T03:10:03.466Z,73.06
2023-10-26T03:12:31.657Z,73.11
2023-10-26T03:15:01.244Z,73.30
2023-10-26T03:17:29.499Z,73.28
2023-10-26T03:19:57.712Z,74.02
2023-10-26T03:22:26.041Z,73.52
2023-10-26T03:24:55.417Z,73.87
2023-10-26T03:27:23.539Z,73.35
2023-10-26T03:29:51.844Z,74.71
2023-10-26T03:32:19.961Z,74.49
2023-10-26T03:34:49.879Z,74.39
2023-10-26T03:37:18.590Z,74.54
2023-10-26T03:39:46.922Z,75.48
2023-10-26T03:42:16.264Z,76.03
2023-10-26T03:44:44.828Z,76.86
2023-10-26T03:47:13.306Z,75.66
2023-10-26T03:49:41.387Z,75.84
2023-10-26T03:52:09.756Z,75.91
2023-10-26T03:54:37.938Z,75.27
2023-10-26T03:57:07.604Z,76.70
2023-10-26T03:59:37.316Z,76.08
2023-10-26T04:02:05.912Z,76.56
2023-10-26T04:04:34.574Z,75.34
2023-10-26T04:07:02.703Z,75.79
2023-10-26T04:09:30.752Z,75.69
2023-10-26T04:11:59.059Z,76.16
2023-10-26T04:14:27.306Z,76.79
2023-10-26T04:16:56.728Z,77.09
2023-10-26T04:19:24.985Z,77.23
2023-10-26T04:21:55.156Z,77.05
2023-10-26T04:24:23.272Z,76.35
2023-10-26T04:26:51.715Z,76.74
2023-10-26T04:29:19.724Z,77.77
2023-10-26T04:31:47.778Z,77.42
2023-10-26T04:34:17.441Z,77.50
2023-10-26T04:36:45.903Z,77.80
2023-10-26T04:39:14.649Z,76.98
2023-10-26T04:41:42.988Z,77.26
2023-10-26T04:44:11.097Z,78.49
2023-10-26T04:46:39.108Z,77.88
2023-10-26T04:49:07.416Z,79.95
2023-10-26T04:51:36.792Z,80.34
2023-10-26T04:54:04.988Z,77.53
2023-10-26T04:56:33.492Z,78.97
2023-10-26T04:59:01.755Z,79.88
2023-10-26T05:01:29.777Z,80.80
2023-10-26T05:03:58.094Z,80.86
2023-10-26T05:06:26.255Z,81.00
2023-10-26T05:08:55.707Z,81.33
2023-10-26T05:11:24.556Z,80.50
2023-10-26T05:13:54.348Z,80.70
2023-10-26T05:16:22.391Z,80.76
2023-10-26T05:18:50.944Z,80.51
2023-10-26T05:21:19.017Z,79.92
2023-10-26T05:23:48.634Z,80.39
2023-10-26T05:26:18.364Z,79.69
2023-10-26T05:28:48.227Z,79.44
2023-10-26T05:31:16.577Z,79.35
2023-10-26T05:33:44.760Z,79.15
2023-10-26T05:36:12.840Z,79.01
2023-10-26T05:38:41.164Z,78.83
2023-10-26T05:41:09.169Z,78.56
2023-10-26T05:43:39.264Z,79.56
2023-10-26T05:46:07.902Z,79.81
2023-10-26T05:48:36.136Z,80.42
2023-10-26T05:51:04.517Z,80.31
2023-10-26T05:53:33.025Z,80.27
2023-10-26T05:56:01.172Z,80.05
2023-10-26T05:58:29.192Z,79.52
2023-10-26T06:00:59.147Z,79.37
2023-10-26T06:03:27.664Z,78.96
2023-10-26T06:06:00.803Z,78.57
2023-10-26T06:08:29.288Z,78.34
2023-10-26T06:10:59.070Z,78.82
2023-10-26T06:13:27.425Z,78.58
2023-10-26T06:15:55.773Z,77.93
2023-10-26T06:18:25.209Z,78.43
2023-10-26T06:21:00.161Z,78.23
2023-10-26T06:23:29.465Z,77.88
2023-10-26T06:26:00.948Z,76.88
2023-10-26T06:28:30.074Z,78.33
2023-10-26T06:30:58.386Z,78.87
2023-10-26T06:33:27.939Z,79.11
2023-10-26T06:35:56.243Z,78.73
2023-10-26T06:38:24.275Z,79.05
2023-10-26T06:40:52.293Z,78.65
2023-10-26T06:43:20.633Z,78.00
2023-10-26T06:45:48.682Z,78.42
2023-10-26T06:48:17.903Z,78.42
2023-10-26T06:50:48.994Z,77.93
2023-10-26T06:53:17.053Z,77.83
2023-10-26T06:55:45.988Z,77.74
2023-10-26T06:58:14.352Z,77.89
2023-10-26T07:00:42.362Z,77.50
2023-10-26T07:03:21.047Z,78.03
2023-10-26T07:05:50.892Z,77.70
2023-10-26T07:08:19.377Z,77.67
2023-10-26T07:10:47.676Z,77.48
2023-10-26T07:13:16.398Z,77.20
2023-10-26T07:15:44.392Z,77.24
2023-10-26T07:18:12.735Z,77.20
2023-10-26T07:20:41.013Z,77.32
2023-10-26T07:23:10.403Z,77.08
2023-10-26T07:25:40.207Z,76.79
2023-10-26T07:28:08.214Z,77.04
2023-10-26T07:30:40.784Z,76.87
2023-10-26T07:33:09.249Z,77.26
2023-10-26T07:35:41.615Z,76.87
2023-10-26T07:41:01.448Z,76.34
2023-10-26T07:43:30.070Z,76.25
2023-10-26T07:45:58.122Z,75.99
2023-10-26T07:48:26.187Z,75.92
2023-10-26T07:50:54.452Z,76.24
2023-10-26T07:53:24.245Z,75.98
2023-10-26T07:55:52.532Z,75.82
2023-10-26T07:58:20.817Z,75.57
2023-10-26T08:00:48.823Z,75.52
2023-10-26T08:03:35.747Z,75.43
2023-10-26T08:06:22.363Z,75.37
2023-10-26T08:09:10.279Z,75.55
2023-10-26T08:11:38.275Z,74.86
2023-10-26T08:14:35.556Z,75.19
2023-10-26T08:16:54.923Z,74.95
2023-10-26T08:19:23.395Z,74.56
2023-10-26T08:21:51.405Z,74.72
2023-10-26T08:24:20.761Z,74.65
2023-10-26T08:26:49.877Z,74.33
2023-10-26T08:29:27.103Z,74.12
2023-10-26T08:31:57.022Z,74.46
2023-10-26T08:34:25.296Z,74.39
2023-10-26T08:37:11.686Z,74.50
2023-10-26T08:39:42.522Z,73.75
2023-10-26T08:42:11.470Z,74.03
2023-10-26T08:44:43.543Z,74.01
2023-10-26T08:47:15.754Z,73.90
2023-10-26T08:49:50.233Z,73.74
2023-10-26T08:52:24.599Z,73.63
2023-10-26T08:54:54.312Z,73.28
2023-10-26T08:57:22.433Z,72.80
2023-10-26T08:59:50.471Z,73.03
2023-10-26T09:02:18.760Z,72.90
2023-10-26T09:05:02.138Z,71.63
2023-10-26T09:07:30.542Z,72.64
2023-10-26T09:09:59.947Z,72.32
2023-10-26T09:12:27.976Z,71.95
2023-10-26T09:14:59.924Z,71.43
2023-10-26T09:17:28.902Z,70.75
2023-10-26T09:19:58.591Z,71.57
2023-10-26T09:22:38.202Z,70.38
2023-10-26T09:25:13.188Z,70.12
2023-10-26T09:27:43.234Z,70.80
2023-10-26T09:30:25.442Z,70.17
2023-10-26T09:32:54.175Z,70.13
2023-10-26T09:35:29.232Z,70.32
2023-10-26T09:37:59.152Z,67.99
2023-10-26T09:40:30.245Z,68.95
2023-10-26T09:42:59.515Z,69.26
2023-10-26T09:45:28.339Z,69.61
2023-10-26T09:47:57.292Z,69.58
2023-10-26T09:50:26.273Z,69.40
2023-10-26T09:52:56.804Z,67.48
2023-10-26T09:55:25.218Z,69.16
2023-10-26T09:57:59.723Z,69.32
2023-10-26T10:00:33.416Z,67.18
2023-10-26T10:03:12.286Z,68.06
2023-10-26T10:05:41.637Z,66.45
2023-10-26T10:08:11.191Z,68.05
2023-10-26T10:11:18.275Z,68.16
2023-10-26T10:13:48.291Z,66.79
2023-10-26T10:16:56.681Z,67.51
2023-10-26T10:19:27.186Z,67.32
2023-10-26T10:21:55.264Z,68.58
2023-10-26T10:24:54.381Z,68.40
2023-10-26T10:27:23.049Z,67.48
2023-10-26T10:29:52.793Z,66.70
2023-10-26T10:32:51.869Z,67.39
2023-10-26T10:35:40.423Z,65.81
2023-10-26T10:38:26.442Z,67.19
2023-10-26T10:41:13.280Z,65.72
2023-10-26T10:43:44.551Z,65.99
2023-10-26T10:46:20.074Z,67.82
2023-10-26T10:49:05.321Z,65.32
2023-10-26T10:51:36.032Z,65.40
2023-10-26T10:54:11.250Z,65.16
2023-10-26T10:56:49.212Z,67.15
2023-10-26T10:59:18.819Z,67.57
2023-10-26T11:01:49.238Z,66.35
2023-10-26T11:04:17.648Z,66.81
2023-10-26T11:06:47.722Z,67.28
2023-10-26T11:09:26.933Z,67.17
2023-10-26T11:11:55.292Z,66.91
2023-10-26T11:14:23.939Z,67.15
2023-10-26T11:16:54.162Z,68.05
2023-10-26T11:19:22.205Z,67.48
2023-10-26T11:21:56.446Z,67.55
2023-10-26T11:24:31.361Z,66.94
2023-10-26T11:27:19.293Z,67.34
2023-10-26T11:30:01.212Z,66.47
2023-10-26T11:32:31.650Z,66.73
2023-10-26T11:35:10.412Z,67.44
2023-10-26T11:37:40.238Z,67.05
2023-10-26T11:40:10.758Z,67.48
2023-10-26T11:42:46.695Z,67.22
2023-10-26T11:45:18.719Z,66.68
2023-10-26T11:47:51.260Z,67.32
2023-10-26T11:50:20.659Z,67.03
2023-10-26T11:52:49.000Z,66.81
2023-10-26T11:55:17.288Z,66.77
2023-10-26T11:57:45.607Z,67.15
2023-10-26T12:00:14.696Z,66.91
2023-10-26T12:02:43.554Z,67.52
2023-10-26T12:05:16.954Z,67.37
2023-10-26T12:07:45.657Z,67.46
2023-10-26T12:10:14.819Z,67.14
2023-10-26T12:12:43.242Z,66.74
2023-10-26T12:15:12.459Z,66.50
2023-10-26T12:17:40.626Z,66.05
2023-10-26T12:20:10.298Z,66.48
2023-10-26T12:22:40.757Z,66.53
2023-10-26T12:25:09.532Z,65.68
2023-10-26T12:28:20.681Z,65.81
2023-10-26T12:30:26.855Z,66.35
2023-10-26T12:32:55.062Z,65.69
2023-10-26T12:35:24.615Z,65.68
2023-10-26T12:37:54.514Z,65.07
2023-10-26T12:40:22.554Z,65.46
2023-10-26T12:42:50.794Z,65.66
2023-10-26T12:45:19.273Z,65.83
2023-10-26T12:47:47.367Z,65.76
2023-10-26T12:50:15.357Z,65.79
2023-10-26T12:52:43.696Z,66.23
2023-10-26T12:55:13.061Z,66.01
2023-10-26T12:57:41.377Z,66.13
2023-10-26T13:00:11.322Z,66.01
2023-10-26T13:02:39.478Z,65.63
2023-10-26T13:05:07.931Z,65.73
2023-10-26T13:07:36.315Z,65.66
2023-10-26T13:10:04.839Z,65.69
2023-10-26T13:12:34.406Z,66.08
2023-10-26T13:15:04.798Z,65.99
2023-10-26T13:17:34.778Z,66.37
2023-10-26T13:20:05.017Z,66.11
2023-10-26T13:22:33.047Z,66.87
2023-10-26T13:25:01.064Z,66.84
2023-10-26T13:27:29.497Z,67.23
2023-10-26T13:29:58.853Z,68.05
2023-10-26T13:32:27.985Z,67.91
2023-10-26T13:34:56.356Z,68.26
2023-10-26T13:37:24.584Z,68.45
2023-10-26T13:39:53.587Z,68.74
2023-10-26T13:42:22.783Z,68.75
2023-10-26T13:44:50.766Z,68.84
2023-10-26T13:47:20.152Z,69.12
2023-10-26T13:49:48.659Z,69.32
2023-10-26T13:52:16.984Z,69.34
2023-10-26T13:54:45.195Z,69.32
2023-10-26T13:57:13.772Z,69.26
2023-10-26T13:59:42.410Z,69.15
2023-10-26T14:02:10.406Z,69.32
2023-10-26T14:04:40.300Z,69.35
2023-10-26T14:07:10.308Z,69.41
2023-10-26T14:09:38.677Z,69.27
2023-10-26T14:12:08.735Z,69.34
2023-10-26T14:14:36.886Z,69.39
2023-10-26T14:17:05.764Z,69.35
2023-10-26T14:19:34.024Z,69.26
2023-10-26T14:22:04.710Z,69.19
2023-10-26T14:24:33.198Z,69.05
2023-10-26T14:27:01.324Z,68.85
2023-10-26T14:29:29.356Z,68.83
2023-10-26T14:31:57.644Z,68.65
2023-10-26T14:34:25.649Z,68.28
2023-10-26T14:36:53.768Z,68.55
2023-10-26T14:39:23.411Z,68.18
2023-10-26T14:41:51.584Z,68.26
2023-10-26T14:44:19.650Z,67.57
2023-10-26T14:46:47.924Z,67.87
2023-10-26T14:49:16.245Z,67.83
2023-10-26T14:51:47.196Z,67.71
2023-10-26T14:54:15.556Z,68.11
2023-10-26T14:56:44.897Z,67.80
2023-10-26T14:59:12.985Z,67.74
2023-10-26T15:01:41.251Z,67.76
2023-10-26T15:04:11.684Z,67.11
2023-10-26T15:06:39.803Z,67.65
2023-10-26T15:09:08.178Z,67.21
2023-10-26T15:11:56.874Z,67.36
2023-10-26T15:14:27.504Z,67.58
2023-10-26T15:16:55.755Z,67.60
2023-10-26T15:19:23.927Z,67.03
2023-10-26T15:21:53.510Z,67.10
2023-10-26T15:24:23.609Z,67.28
2023-10-26T15:26:51.704Z,67.31
2023-10-26T15:29:19.945Z,67.24
2023-10-26T15:31:49.356Z,67.26
2023-10-26T15:34:17.469Z,67.28
2023-10-26T15:36:45.818Z,67.16
2023-10-26T15:39:14.617Z,67.22
2023-10-26T15:41:43.848Z,67.57
2023-10-26T15:44:12.249Z,67.36
2023-10-26T15:46:41.849Z,67.45
2023-10-26T15:49:30.730Z,67.56
2023-10-26T15:51:59.882Z,67.50
2023-10-26T15:54:28.074Z,67.27
2023-10-26T15:56:56.156Z,67.38
2023-10-26T15:59:25.726Z,67.72
2023-10-26T16:01:54.025Z,68.01
2023-10-26T16:04:23.643Z,67.97
2023-10-26T16:06:51.840Z,67.72
2023-10-26T16:09:23.460Z,67.87
2023-10-26T16:11:51.924Z,67.65
2023-10-26T16:14:19.942Z,68.01
2023-10-26T16:16:48.084Z,68.11
2023-10-26T16:19:16.725Z,67.96
2023-10-26T16:21:46.144Z,67.91
2023-10-26T16:24:14.615Z,68.39
2023-10-26T16:26:42.891Z,68.70
2023-10-26T16:29:10.884Z,68.59
2023-10-26T16:31:39.010Z,68.48
2023-10-26T16:34:07.562Z,68.40
2023-10-26T16:36:35.714Z,68.37
2023-10-26T16:39:06.052Z,68.58
2023-10-26T16:41:34.302Z,68.82
2023-10-26T16:44:02.372Z,69.01
2023-10-26T16:46:32.818Z,69.06
2023-10-26T16:49:01.207Z,69.08
2023-10-26T16:51:30.012Z,69.06
2023-10-26T16:53:58.402Z,69.15
2023-10-26T16:56:30.063Z,69.23
2023-10-26T16:58:58.173Z,69.17
2023-10-26T17:01:26.599Z,69.11
2023-10-26T17:03:54.816Z,69.25
2023-10-26T17:06:22.983Z,69.33
2023-10-26T17:08:51.389Z,69.32
2023-10-26T17:11:19.485Z,69.29
2023-10-26T17:13:48.986Z,69.14
2023-10-26T17:16:17.493Z,69.31
2023-10-26T17:18:45.727Z,69.37
2023-10-26T17:21:14.003Z,69.23
2023-10-26T17:23:42.483Z,69.15
2023-10-26T17:26:14.465Z,69.16
2023-10-26T17:28:42.917Z,69.07
2023-10-26T17:31:12.802Z,69.03
2023-10-26T17:33:41.093Z,68.96
2023-10-26T17:36:10.088Z,68.70
2023-10-26T17:38:38.390Z,68.70
2023-10-26T17:41:10.076Z,68.65
2023-10-26T17:43:38.656Z,68.62
2023-10-26T17:46:07.083Z,68.44
2023-10-26T17:48:36.775Z,68.46
2023-10-26T17:51:10.177Z,68.34
2023-10-26T17:53:42.799Z,68.27
2023-10-26T17:56:14.150Z,68.31
2023-10-26T17:58:43.793Z,68.64
2023-10-26T18:01:14.843Z,69.02
2023-10-26T18:03:44.834Z,68.92
2023-10-26T18:06:13.129Z,69.27
2023-10-26T18:08:41.834Z,69.37
2023-10-26T18:11:10.579Z,69.77
2023-10-26T18:13:38.672Z,69.74
2023-10-26T18:16:10.512Z,69.71
2023-10-26T18:18:39.694Z,69.52
2023-10-26T18:21:09.808Z,69.53
2023-10-26T18:23:38.054Z,69.45
2023-10-26T18:26:08.200Z,69.31
2023-10-26T18:28:37.873Z,69.39
2023-10-26T18:31:09.680Z,69.54
2023-10-26T18:33:38.887Z,69.52
2023-10-26T18:36:11.402Z,69.60
2023-10-26T18:38:41.689Z,69.41
2023-10-26T18:41:11.277Z,69.42
2023-10-26T18:43:39.757Z,69.19
2023-10-26T18:46:08.273Z,69.21
2023-10-26T18:48:38.268Z,69.02
2023-10-26T18:51:08.303Z,69.00
2023-10-26T18:53:38.609Z,69.13
2023-10-26T18:56:13.343Z,69.21
2023-10-26T18:58:41.504Z,69.31
2023-10-26T19:01:10.244Z,69.30
2023-10-26T19:03:53.275Z,69.19
2023-10-26T19:06:26.951Z,69.40
2023-10-26T19:08:56.415Z,69.40
2023-10-26T19:11:24.622Z,69.31
2023-10-26T19:13:53.273Z,69.37
2023-10-26T19:16:21.791Z,69.40
2023-10-26T19:18:50.088Z,69.34
2023-10-26T19:21:18.521Z,69.30
2023-10-26T19:23:46.641Z,69.23
2023-10-26T19:26:16.259Z,69.25
2023-10-26T19:28:44.636Z,69.07
2023-10-26T19:31:13.940Z,68.91
2023-10-26T19:33:43.153Z,68.80
2023-10-26T19:36:11.958Z,68.73
2023-10-26T19:38:40.173Z,68.83
2023-10-26T19:41:08.424Z,68.81
2023-10-26T19:43:38.242Z,68.89
2023-10-26T19:46:06.471Z,68.92
2023-10-26T19:48:34.612Z,69.09
2023-10-26T19:51:04.419Z,69.02
2023-10-26T19:53:36.358Z,69.06
2023-10-26T19:56:05.914Z,69.33
2023-10-26T19:58:34.151Z,69.14
2023-10-26T20:01:04.594Z,68.90
2023-10-26T20:03:33.422Z,69.34
2023-10-26T20:06:03.384Z,69.01
2023-10-26T20:08:33.407Z,68.90
2023-10-26T20:11:01.489Z,68.93
2023-10-26T20:13:29.657Z,68.70
2023-10-26T20:15:58.260Z,68.91
2023-10-26T20:18:28.528Z,69.24
2023-10-26T20:20:57.522Z,69.16
2023-10-26T20:23:27.106Z,69.50
2023-10-26T20:25:58.060Z,69.53
2023-10-26T20:28:26.444Z,69.40
2023-10-26T20:30:54.724Z,69.68
2023-10-26T20:33:22.851Z,70.04
2023-10-26T20:35:52.974Z,69.82
2023-10-26T20:38:22.031Z,70.18
2023-10-26T20:40:51.255Z,70.51
2023-10-26T20:43:19.725Z,70.71
2023-10-26T20:45:47.884Z,69.64
2023-10-26T20:48:16.249Z,69.16
2023-10-26T20:50:44.316Z,69.17
2023-10-26T20:53:13.904Z,68.99
2023-10-26T20:55:42.409Z,68.61
2023-10-26T20:58:10.895Z,68.38
2023-10-26T21:00:38.988Z,68.08
2023-10-26T21:03:07.226Z,67.89
2023-10-26T21:05:35.294Z,67.78
2023-10-26T21:08:03.300Z,68.04
2023-10-26T21:10:35.942Z,67.79
2023-10-26T21:13:04.435Z,67.66
2023-10-26T21:15:32.719Z,67.98
2023-10-26T21:18:00.780Z,67.77
2023-10-26T21:20:28.812Z,67.77
2023-10-26T21:22:57.270Z,67.63
2023-10-26T21:25:25.728Z,67.84
2023-10-26T21:27:55.090Z,68.35
2023-10-26T21:30:26.052Z,69.00
2023-10-26T21:32:54.936Z,69.83
2023-10-26T21:35:23.287Z,69.78
2023-10-26T21:37:51.652Z,69.93
2023-10-26T21:40:19.873Z,70.06
2023-10-26T21:42:49.085Z,70.15
2023-10-26T21:45:18.760Z,70.22
2023-10-26T21:47:46.789Z,69.28
2023-10-26T21:50:15.346Z,69.55
2023-10-26T21:52:43.334Z,70.22
2023-10-26T21:55:11.425Z,69.80
2023-10-26T21:57:39.747Z,69.96
2023-10-26T22:00:10.215Z,70.14
2023-10-26T22:02:42.087Z,70.27
2023-10-26T22:05:11.006Z,70.54
2023-10-26T22:07:41.213Z,70.89
2023-10-26T22:10:10.058Z,71.04
2023-10-26T22:12:38.402Z,71.36
2023-10-26T22:15:07.505Z,71.38
2023-10-26T22:17:35.783Z,71.32
2023-10-26T22:20:06.390Z,71.27
2023-10-26T22:22:34.412Z,71.36
2023-10-26T22:25:03.077Z,71.31
2023-10-26T22:27:31.683Z,71.13
2023-10-26T22:29:59.794Z,71.06
2023-10-26T22:32:27.891Z,71.01
2023-10-26T22:34:56.475Z,71.02
2023-10-26T22:37:25.895Z,71.04
2023-10-26T22:39:54.916Z,70.81
2023-10-26T22:42:23.274Z,70.52
2023-10-26T22:44:51.837Z,70.47
2023-10-26T22:47:19.933Z,70.16
2023-10-26T22:49:48.457Z,70.30
2023-10-26T22:52:17.299Z,70.61
2023-10-26T22:54:46.882Z,69.52
2023-10-26T22:57:15.145Z,69.89
2023-10-26T22:59:43.303Z,70.00
2023-10-26T23:02:11.405Z,70.09
2023-10-26T23:04:40.988Z,69.87
2023-10-26T23:07:09.153Z,69.60
2023-10-26T23:09:37.433Z,69.67
2023-10-26T23:12:07.509Z,69.93
2023-10-26T23:14:35.489Z,69.81
2023-10-26T23:17:03.923Z,69.80
2023-10-26T23:19:32.311Z,70.07
2023-10-26T23:22:00.838Z,70.02
2023-10-26T23:24:28.845Z,69.93
2023-10-26T23:26:57.454Z,69.89
2023-10-26T23:29:28.947Z,69.68
2023-10-26T23:31:57.524Z,69.67
2023-10-26T23:34:25.625Z,69.83
2023-10-26T23:36:53.720Z,69.93
2023-10-26T23:39:22.219Z,69.86
2023-10-26T23:41:50.230Z,69.81
2023-10-26T23:44:18.283Z,69.89
2023-10-26T23:46:47.868Z,69.75
2023-10-26T23:49:15.852Z,70.09
2023-10-26T23:51:44.193Z,70.07
2023-10-26T23:54:13.093Z,70.19
2023-10-26T23:56:41.113Z,70.42
2023-10-26T23:59:09.145Z,70.58
